Time;durP1;ratioP1;P1;durP2;ratioP2;P2;SDS_P1;SDS_P2;PMS_P1;PMS_P2;Temp;Humidity;BMP_temperature;BMP_pressure;BME280_temperature;BME280_humidity;BME280_pressure;Samples;Min_cycle;Max_cycle;Signal;HPM_P1;HPM_P2
2021/12/03 00:00:05;;;;;;;17.40;10.07;;;3.80;99.90;;;;;;5075761;28;20173;-71
2021/12/03 00:02:31;;;;;;;18.77;9.93;;;3.90;99.90;;;;;;5075524;28;20165;-71
2021/12/03 00:04:56;;;;;;;17.40;10.90;;;3.90;99.90;;;;;;5075806;28;20216;-71
2021/12/03 00:07:22;;;;;;;17.53;10.60;;;3.90;99.90;;;;;;5075737;28;20616;-70
2021/12/03 00:09:48;;;;;;;20.37;10.77;;;3.90;99.90;;;;;;5075767;28;20271;-70
2021/12/03 00:12:13;;;;;;;20.60;10.70;;;3.90;99.90;;;;;;5075705;28;20175;-71
2021/12/03 00:14:39;;;;;;;17.70;10.90;;;4.00;99.90;;;;;;5075344;28;20216;-70
2021/12/03 00:17:04;;;;;;;20.93;10.90;;;4.00;99.90;;;;;;5075178;28;20173;-71
2021/12/03 00:19:30;;;;;;;17.60;10.33;;;3.90;99.90;;;;;;5075830;28;20586;-70
2021/12/03 00:21:56;;;;;;;17.87;10.17;;;3.90;99.90;;;;;;5075174;28;20224;-70
2021/12/03 00:24:21;;;;;;;24.47;11.43;;;3.80;99.90;;;;;;5075619;28;20294;-70
2021/12/03 00:26:47;;;;;;;22.37;10.67;;;3.80;99.90;;;;;;5075689;28;20196;-70
2021/12/03 00:29:13;;;;;;;20.23;10.60;;;3.80;99.90;;;;;;5075128;28;20267;-70
2021/12/03 00:31:38;;;;;;;17.40;9.93;;;3.70;99.90;;;;;;5074891;28;20164;-70
2021/12/03 00:34:04;;;;;;;24.73;10.23;;;3.60;99.90;;;;;;5075325;28;20169;-70
2021/12/03 00:36:30;;;;;;;23.07;11.03;;;3.60;99.90;;;;;;5074962;28;20203;-71
2021/12/03 00:38:59;;;;;;;18.77;11.20;;;3.60;99.90;;;;;;5075366;28;20176;-70
2021/12/03 00:41:30;;;;;;;20.10;11.33;;;3.50;99.90;;;;;;5074250;28;20188;-70
2021/12/03 00:43:55;;;;;;;18.90;10.37;;;3.50;99.90;;;;;;5075017;28;20327;-70
2021/12/03 00:46:22;;;;;;;18.30;10.90;;;3.40;99.90;;;;;;5074685;28;20208;-70
2021/12/03 00:48:50;;;;;;;21.60;10.87;;;3.40;99.90;;;;;;5075205;28;20259;-71
2021/12/03 00:51:19;;;;;;;21.67;11.23;;;3.30;99.90;;;;;;5075235;28;20195;-71
2021/12/03 00:53:45;;;;;;;21.17;10.43;;;3.20;99.90;;;;;;5074960;28;20168;-71
2021/12/03 00:56:16;;;;;;;23.30;11.23;;;3.20;99.90;;;;;;5074624;28;20177;-71
2021/12/03 00:58:42;;;;;;;23.13;11.80;;;3.20;99.90;;;;;;5074835;28;20184;-70
2021/12/03 01:01:08;;;;;;;24.67;12.67;;;3.30;99.90;;;;;;5074381;28;20248;-70
2021/12/03 01:03:39;;;;;;;20.43;11.57;;;3.30;99.90;;;;;;5074655;28;20262;-70
2021/12/03 01:06:05;;;;;;;20.57;12.17;;;3.30;99.90;;;;;;5074774;28;20660;-71
2021/12/03 01:08:31;;;;;;;24.23;11.30;;;3.30;99.90;;;;;;5074571;28;20620;-70
2021/12/03 01:10:58;;;;;;;27.27;11.50;;;3.30;99.90;;;;;;5074371;28;20169;-70
2021/12/03 01:13:24;;;;;;;22.57;12.23;;;3.20;99.90;;;;;;5074369;28;20536;-70
2021/12/03 01:15:50;;;;;;;23.77;12.57;;;3.20;99.90;;;;;;5074229;28;20195;-70
2021/12/03 01:18:15;;;;;;;23.83;12.17;;;3.20;99.90;;;;;;5074976;28;20180;-70
2021/12/03 01:20:43;;;;;;;21.87;12.03;;;3.20;99.90;;;;;;5074536;28;20676;-70
2021/12/03 01:23:11;;;;;;;25.27;11.77;;;3.30;99.90;;;;;;5073958;28;20235;-71
2021/12/03 01:25:37;;;;;;;22.67;12.17;;;3.20;99.90;;;;;;5074160;28;20300;-70
2021/12/03 01:28:03;;;;;;;26.83;11.97;;;3.20;99.90;;;;;;5074325;28;20176;-70
2021/12/03 01:30:31;;;;;;;22.80;12.37;;;3.20;99.90;;;;;;5073956;28;20175;-70
2021/12/03 01:32:59;;;;;;;23.43;12.57;;;3.20;99.90;;;;;;5074265;28;20164;-70
2021/12/03 01:35:26;;;;;;;24.63;13.17;;;3.00;99.90;;;;;;5074029;28;20165;-71
2021/12/03 01:37:52;;;;;;;27.80;12.77;;;3.20;99.90;;;;;;5074041;28;20318;-71
2021/12/03 01:40:21;;;;;;;27.13;12.97;;;3.20;99.90;;;;;;5073889;28;20251;-71
2021/12/03 01:42:47;;;;;;;31.10;13.00;;;3.10;99.90;;;;;;5073640;28;20235;-71
2021/12/03 01:45:20;;;;;;;24.67;11.97;;;3.10;99.90;;;;;;5073896;28;20204;-71
2021/12/03 01:47:47;;;;;;;24.90;12.43;;;3.10;99.90;;;;;;5074036;28;20156;-71
2021/12/03 01:50:13;;;;;;;24.50;13.07;;;3.00;99.90;;;;;;5073835;28;20566;-71
2021/12/03 01:52:40;;;;;;;32.53;13.63;;;3.10;99.90;;;;;;5073501;28;20596;-71
2021/12/03 01:55:09;;;;;;;27.30;13.53;;;3.20;99.90;;;;;;5073502;28;20176;-70
2021/12/03 01:57:35;;;;;;;25.47;12.47;;;3.20;99.90;;;;;;5073224;28;20267;-70
2021/12/03 02:00:05;;;;;;;28.00;12.83;;;3.10;99.90;;;;;;5073683;28;20168;-70
2021/12/03 02:02:31;;;;;;;26.60;13.00;;;3.00;99.90;;;;;;5073717;28;20635;-70
2021/12/03 02:04:57;;;;;;;28.97;13.03;;;3.10;99.90;;;;;;5073362;28;20299;-71
2021/12/03 02:07:23;;;;;;;30.43;12.30;;;3.10;99.90;;;;;;5073750;28;20264;-71
2021/12/03 02:09:49;;;;;;;23.37;11.43;;;3.10;99.90;;;;;;5073443;28;20259;-71
2021/12/03 02:12:14;;;;;;;23.60;12.40;;;3.10;99.90;;;;;;5073019;28;20172;-71
2021/12/03 02:14:40;;;;;;;26.00;11.70;;;3.20;99.90;;;;;;5073415;28;20648;-71
2021/12/03 02:17:06;;;;;;;23.23;12.33;;;3.20;99.90;;;;;;5073187;28;20311;-71
2021/12/03 02:19:33;;;;;;;23.83;11.87;;;3.20;99.90;;;;;;5073312;28;20175;-71
2021/12/03 02:21:59;;;;;;;31.37;12.30;;;3.20;99.90;;;;;;5073162;28;20220;-71
2021/12/03 02:24:24;;;;;;;25.63;11.53;;;3.20;99.90;;;;;;5072965;28;20671;-71
2021/12/03 02:26:50;;;;;;;24.03;11.13;;;3.20;99.90;;;;;;5072905;28;20168;-71
2021/12/03 02:29:16;;;;;;;26.33;10.97;;;3.10;99.90;;;;;;5073356;28;20176;-70
2021/12/03 02:31:42;;;;;;;27.50;11.40;;;3.10;99.90;;;;;;5073063;28;20179;-71
2021/12/03 02:34:08;;;;;;;25.10;10.67;;;3.10;99.90;;;;;;5073031;28;20176;-71
2021/12/03 02:36:34;;;;;;;323.23;37.70;;;3.10;99.90;;;;;;5073254;28;20175;-70
2021/12/03 02:39:00;;;;;;;37.80;12.00;;;3.00;99.90;;;;;;5073245;28;20273;-71
2021/12/03 02:41:26;;;;;;;33.23;11.50;;;3.00;99.90;;;;;;5072645;28;20647;-71
2021/12/03 02:43:53;;;;;;;23.43;9.77;;;3.00;99.90;;;;;;5073069;28;20200;-70
2021/12/03 02:46:19;;;;;;;32.60;10.17;;;2.90;99.90;;;;;;5072967;28;20173;-71
2021/12/03 02:48:44;;;;;;;20.63;10.07;;;2.90;99.90;;;;;;5071863;28;20189;-70
2021/12/03 02:51:10;;;;;;;24.80;10.43;;;2.90;99.90;;;;;;5073224;28;20624;-70
2021/12/03 02:53:37;;;;;;;26.10;9.93;;;2.80;99.90;;;;;;5072789;28;20172;-71
2021/12/03 02:56:05;;;;;;;29.27;11.03;;;2.90;99.90;;;;;;5072949;28;20168;-71
2021/12/03 02:58:31;;;;;;;22.00;9.60;;;3.00;99.90;;;;;;5071509;28;20633;-70
2021/12/03 03:00:58;;;;;;;25.70;9.73;;;2.90;99.90;;;;;;5072831;28;20165;-71
2021/12/03 03:03:24;;;;;;;29.83;10.37;;;2.90;99.90;;;;;;5073018;28;20188;-70
2021/12/03 03:05:55;;;;;;;25.47;9.37;;;2.90;99.90;;;;;;5077307;28;20242;-70
2021/12/03 03:08:22;;;;;;;29.43;10.60;;;2.80;99.90;;;;;;5076702;28;20172;-71
2021/12/03 03:10:48;;;;;;;32.27;10.10;;;2.80;99.90;;;;;;5076164;28;20663;-70
2021/12/03 03:13:14;;;;;;;28.87;10.13;;;2.80;99.90;;;;;;5076549;28;20562;-71
2021/12/03 03:15:40;;;;;;;24.87;9.43;;;2.90;99.90;;;;;;5075583;28;20184;-70
2021/12/03 03:18:25;;;;;;;26.67;9.00;;;2.90;99.90;;;;;;5077048;28;20176;-71
2021/12/03 03:20:53;;;;;;;21.17;9.97;;;2.90;99.90;;;;;;5077038;28;20177;-70
2021/12/03 03:23:20;;;;;;;27.23;9.00;;;2.90;99.90;;;;;;5076153;28;20220;-70
2021/12/03 03:25:46;;;;;;;23.20;9.10;;;2.90;99.90;;;;;;5076531;28;20303;-69
2021/12/03 03:28:13;;;;;;;27.40;9.03;;;2.90;99.90;;;;;;5075217;28;20735;-70
2021/12/03 03:30:43;;;;;;;22.37;8.87;;;2.90;99.90;;;;;;5076639;28;20184;-70
2021/12/03 03:33:10;;;;;;;22.43;8.33;;;2.80;99.90;;;;;;5076698;28;20260;-70
2021/12/03 03:35:36;;;;;;;29.13;8.63;;;2.80;99.90;;;;;;5076157;28;20181;-70
2021/12/03 03:38:02;;;;;;;27.47;8.40;;;2.90;99.90;;;;;;5076308;28;20359;-70
2021/12/03 03:40:28;;;;;;;26.90;8.83;;;2.90;99.90;;;;;;5075967;28;20177;-71
2021/12/03 03:42:54;;;;;;;20.67;8.13;;;2.90;99.90;;;;;;5076169;28;20169;-70
2021/12/03 03:45:22;;;;;;;26.60;8.10;;;2.90;99.90;;;;;;5076092;28;20208;-70
2021/12/03 03:47:48;;;;;;;33.20;8.60;;;2.80;99.90;;;;;;5076163;28;20165;-71
2021/12/03 03:50:16;;;;;;;27.27;8.07;;;2.90;99.90;;;;;;5076017;28;20238;-69
2021/12/03 03:52:43;;;;;;;20.97;7.40;;;2.90;99.90;;;;;;5075871;28;20177;-70
2021/12/03 03:55:10;;;;;;;27.97;7.60;;;3.00;99.90;;;;;;5075715;28;20223;-70
2021/12/03 03:57:36;;;;;;;26.93;7.37;;;2.90;99.90;;;;;;5076020;28;20161;-70
2021/12/03 04:00:05;;;;;;;25.67;7.70;;;2.80;99.90;;;;;;5075825;28;20764;-70
2021/12/03 04:02:31;;;;;;;21.40;7.23;;;2.80;99.90;;;;;;5076090;28;20172;-70
2021/12/03 04:04:56;;;;;;;23.57;7.63;;;2.80;99.90;;;;;;5075833;28;20675;-70
2021/12/03 04:07:22;;;;;;;27.53;7.37;;;2.80;99.90;;;;;;5075590;28;20601;-70
2021/12/03 04:09:47;;;;;;;24.93;7.83;;;2.80;99.90;;;;;;5075355;28;20200;-70
2021/12/03 04:12:13;;;;;;;21.30;7.27;;;2.80;99.90;;;;;;5075546;28;20176;-70
2021/12/03 04:14:39;;;;;;;20.77;7.67;;;2.70;99.90;;;;;;5075654;28;20222;-70
2021/12/03 04:17:04;;;;;;;22.83;7.53;;;2.60;99.90;;;;;;5075567;28;20534;-70
2021/12/03 04:19:30;;;;;;;21.87;7.00;;;2.70;99.90;;;;;;5075127;28;20600;-70
2021/12/03 04:21:56;;;;;;;20.50;6.60;;;2.60;99.90;;;;;;5075113;28;20216;-70
2021/12/03 04:24:22;;;;;;;22.50;8.03;;;2.60;99.90;;;;;;5074901;28;20672;-70
2021/12/03 04:26:47;;;;;;;19.60;6.40;;;2.70;99.90;;;;;;5075457;28;20180;-69
2021/12/03 04:29:13;;;;;;;26.93;6.90;;;2.70;99.90;;;;;;5073970;28;20212;-70
2021/12/03 04:31:39;;;;;;;20.00;6.90;;;2.70;99.90;;;;;;5075444;28;20165;-69
2021/12/03 04:34:05;;;;;;;27.07;7.00;;;2.70;99.90;;;;;;5075409;28;20176;-71
2021/12/03 04:36:30;;;;;;;20.83;6.73;;;2.70;99.90;;;;;;5075026;28;20173;-70
2021/12/03 04:38:56;;;;;;;21.70;6.37;;;2.70;99.90;;;;;;5074895;28;20635;-70
2021/12/03 04:41:22;;;;;;;23.83;6.83;;;2.70;99.90;;;;;;5074911;28;20175;-70
2021/12/03 04:43:48;;;;;;;26.47;6.63;;;2.60;99.90;;;;;;5074995;28;20332;-70
2021/12/03 04:46:13;;;;;;;23.57;7.13;;;2.60;99.90;;;;;;5074515;28;20180;-70
2021/12/03 04:48:39;;;;;;;25.63;7.27;;;2.60;99.90;;;;;;5074914;28;20197;-70
2021/12/03 04:51:05;;;;;;;24.73;6.80;;;2.60;99.90;;;;;;5074668;28;20588;-70
2021/12/03 04:53:30;;;;;;;29.33;6.73;;;2.50;99.90;;;;;;5074312;28;20287;-70
2021/12/03 04:55:56;;;;;;;24.63;6.80;;;2.50;99.90;;;;;;5074465;28;20247;-70
2021/12/03 04:58:21;;;;;;;19.13;6.17;;;2.50;99.90;;;;;;5074475;28;20572;-71
2021/12/03 05:00:53;;;;;;;20.37;6.63;;;2.50;99.90;;;;;;5074732;28;20632;-70
2021/12/03 05:03:23;;;;;;;23.67;6.47;;;2.50;99.90;;;;;;5074148;28;20175;-70
2021/12/03 05:05:56;;;;;;;15.90;6.50;;;2.60;99.90;;;;;;5074193;28;20613;-70
2021/12/03 05:08:27;;;;;;;18.37;6.30;;;2.60;99.90;;;;;;5073347;28;20172;-70
2021/12/03 05:10:54;;;;;;;16.03;6.20;;;2.70;99.90;;;;;;5074254;28;20180;-70
2021/12/03 05:13:24;;;;;;;18.50;6.47;;;2.70;99.90;;;;;;5073954;28;20164;-70
2021/12/03 05:15:50;;;;;;;19.63;6.20;;;2.70;99.90;;;;;;5074197;28;20172;-70
2021/12/03 05:18:19;;;;;;;17.50;5.53;;;2.70;99.90;;;;;;5074467;28;20218;-71
2021/12/03 05:20:46;;;;;;;17.07;6.13;;;2.70;99.90;;;;;;5073405;28;20188;-70
2021/12/03 05:23:12;;;;;;;20.00;6.07;;;2.80;99.90;;;;;;5072350;28;20235;-71
2021/12/03 05:25:38;;;;;;;20.67;6.10;;;2.80;99.90;;;;;;5073957;28;20284;-70
2021/12/03 05:28:05;;;;;;;23.10;6.20;;;2.80;99.90;;;;;;5073449;28;20484;-70
2021/12/03 05:30:31;;;;;;;14.97;6.03;;;2.70;99.90;;;;;;5074020;28;20200;-70
2021/12/03 05:32:57;;;;;;;12.60;5.80;;;2.80;99.90;;;;;;5073712;28;20176;-71
2021/12/03 05:35:23;;;;;;;16.53;6.10;;;2.80;99.90;;;;;;5073277;28;20172;-70
2021/12/03 05:37:49;;;;;;;24.70;6.13;;;2.80;99.90;;;;;;5074207;28;20176;-70
2021/12/03 05:40:16;;;;;;;13.17;6.37;;;2.80;99.90;;;;;;5073491;28;20184;-69
2021/12/03 05:42:44;;;;;;;16.97;6.23;;;2.80;99.90;;;;;;5073328;28;20250;-70
2021/12/03 05:45:12;;;;;;;20.13;7.20;;;2.90;99.90;;;;;;5073557;28;20283;-69
2021/12/03 05:47:38;;;;;;;16.50;6.57;;;2.90;99.90;;;;;;5073251;28;20267;-70
2021/12/03 05:50:06;;;;;;;14.33;6.10;;;2.90;99.90;;;;;;5073154;28;20251;-69
2021/12/03 05:52:31;;;;;;;16.63;7.33;;;2.80;99.90;;;;;;5072691;28;20168;-70
2021/12/03 05:54:57;;;;;;;10.43;6.00;;;2.80;99.90;;;;;;5073083;28;20251;-70
2021/12/03 05:57:23;;;;;;;19.33;6.37;;;2.90;99.90;;;;;;5072967;28;20172;-70
2021/12/03 05:59:49;;;;;;;16.10;6.50;;;2.90;99.90;;;;;;5073159;28;20251;-70
2021/12/03 06:02:14;;;;;;;17.27;6.70;;;3.00;99.90;;;;;;5072819;28;20251;-71
2021/12/03 06:04:40;;;;;;;21.93;6.33;;;3.10;99.90;;;;;;5072654;28;20782;-70
2021/12/03 06:07:06;;;;;;;19.50;6.20;;;3.20;99.90;;;;;;5073144;28;20505;-69
2021/12/03 06:09:32;;;;;;;15.63;5.50;;;3.20;99.90;;;;;;5072978;28;20238;-70
2021/12/03 06:11:59;;;;;;;19.17;6.93;;;3.20;99.90;;;;;;5072143;28;20632;-70
2021/12/03 06:14:25;;;;;;;22.13;5.90;;;3.20;99.90;;;;;;5071712;28;20635;-69
2021/12/03 06:16:51;;;;;;;13.33;5.53;;;3.30;99.90;;;;;;5072005;28;20180;-69
2021/12/03 06:19:16;;;;;;;14.07;5.47;;;3.20;99.90;;;;;;5072168;28;20172;-70
2021/12/03 06:21:42;;;;;;;12.90;5.33;;;3.20;99.90;;;;;;5072436;28;20695;-70
2021/12/03 06:24:07;;;;;;;13.87;5.00;;;3.30;99.90;;;;;;5072119;28;20208;-69
2021/12/03 06:26:33;;;;;;;21.57;5.70;;;3.20;99.90;;;;;;5073011;28;20259;-70
2021/12/03 06:28:59;;;;;;;16.73;4.77;;;3.30;99.90;;;;;;5072261;28;20169;-70
2021/12/03 06:31:24;;;;;;;16.27;5.13;;;3.20;99.90;;;;;;5071431;28;20531;-69
2021/12/03 06:33:50;;;;;;;17.37;5.10;;;3.20;99.90;;;;;;5071659;28;20226;-69
2021/12/03 06:36:16;;;;;;;15.50;5.53;;;3.30;99.90;;;;;;5072541;28;20196;-70
2021/12/03 06:38:42;;;;;;;14.17;5.30;;;3.30;99.90;;;;;;5071813;28;20176;-69
2021/12/03 06:41:08;;;;;;;20.07;5.10;;;3.40;99.90;;;;;;5071119;28;20262;-71
2021/12/03 06:43:34;;;;;;;15.57;5.27;;;3.40;99.90;;;;;;5071646;28;20173;-70
2021/12/03 06:45:59;;;;;;;20.40;5.17;;;3.40;99.90;;;;;;5071517;28;20208;-70
2021/12/03 06:48:25;;;;;;;18.83;5.27;;;3.50;99.90;;;;;;5071685;28;20165;-69
2021/12/03 06:50:52;;;;;;;13.40;4.77;;;3.70;99.90;;;;;;5071816;28;20635;-70
2021/12/03 06:53:20;;;;;;;23.13;5.10;;;3.70;99.90;;;;;;5071330;28;20168;-70
2021/12/03 06:58:17;;;;;;;20.97;5.43;;;3.70;99.90;;;;;;5072380;28;20173;-69
2021/12/03 07:00:45;;;;;;;19.33;5.47;;;3.80;99.90;;;;;;5070955;28;20173;-70
2021/12/03 07:03:11;;;;;;;15.37;5.33;;;3.70;99.90;;;;;;5069514;28;20349;-70
2021/12/03 07:05:37;;;;;;;20.27;5.40;;;3.80;99.90;;;;;;5070360;28;20299;-70
2021/12/03 07:08:03;;;;;;;24.50;5.67;;;3.90;99.90;;;;;;5071842;28;20241;-70
2021/12/03 07:10:29;;;;;;;16.83;5.27;;;3.80;99.90;;;;;;5071860;28;20345;-70
2021/12/03 07:12:55;;;;;;;17.97;5.80;;;3.80;99.90;;;;;;5071827;28;20168;-69
2021/12/03 07:15:20;;;;;;;19.40;5.17;;;3.80;99.90;;;;;;5071165;28;20673;-69
2021/12/03 07:17:50;;;;;;;18.60;5.30;;;3.80;99.90;;;;;;5071400;28;20169;-70
2021/12/03 07:20:16;;;;;;;15.93;5.27;;;3.80;99.90;;;;;;5070924;28;20180;-70
2021/12/03 07:22:42;;;;;;;18.67;5.50;;;3.80;99.90;;;;;;5071758;28;20224;-70
2021/12/03 07:25:08;;;;;;;18.77;5.10;;;3.80;99.90;;;;;;5070971;28;20310;-70
2021/12/03 07:27:34;;;;;;;15.73;5.10;;;3.80;99.90;;;;;;5070613;28;20169;-70
2021/12/03 07:29:59;;;;;;;23.30;6.40;;;3.80;99.90;;;;;;5071496;28;20651;-70
2021/12/03 07:32:27;;;;;;;12.00;5.20;;;3.80;99.90;;;;;;5070531;28;20169;-70
2021/12/03 07:34:53;;;;;;;18.33;5.47;;;3.80;99.90;;;;;;5071713;28;20259;-71
2021/12/03 07:37:18;;;;;;;15.13;6.03;;;3.90;99.90;;;;;;5072122;28;20573;-70
2021/12/03 07:39:44;;;;;;;16.17;5.70;;;3.90;99.90;;;;;;5071169;28;20258;-70
2021/12/03 07:42:10;;;;;;;16.57;5.83;;;3.90;99.90;;;;;;5070972;28;20173;-70
2021/12/03 07:44:36;;;;;;;21.73;5.77;;;3.90;99.90;;;;;;5071432;28;20208;-70
2021/12/03 07:47:02;;;;;;;21.60;6.13;;;3.90;99.90;;;;;;5069999;28;20173;-70
2021/12/03 07:49:28;;;;;;;11.90;5.17;;;4.00;99.90;;;;;;5072311;28;20183;-71
2021/12/03 07:51:54;;;;;;;22.50;6.23;;;4.00;99.90;;;;;;5075283;28;20608;-70
2021/12/03 07:54:21;;;;;;;17.00;5.70;;;4.10;99.90;;;;;;5075518;28;20194;-70
2021/12/03 07:56:47;;;;;;;19.43;5.60;;;4.10;99.90;;;;;;5074584;28;20624;-70
2021/12/03 07:59:12;;;;;;;15.50;5.53;;;4.10;99.90;;;;;;5073727;28;20211;-71
2021/12/03 08:01:42;;;;;;;15.50;7.00;;;4.10;99.90;;;;;;5074926;28;20225;-70
2021/12/03 08:04:08;;;;;;;16.00;5.70;;;4.10;99.90;;;;;;5075019;28;20599;-70
2021/12/03 08:06:37;;;;;;;15.00;5.80;;;4.10;99.90;;;;;;5075455;28;20175;-70
2021/12/03 08:09:02;;;;;;;11.97;5.77;;;4.10;99.90;;;;;;5074506;28;20262;-69
2021/12/03 08:11:28;;;;;;;17.83;5.93;;;4.10;99.90;;;;;;5074924;28;20585;-70
2021/12/03 08:13:54;;;;;;;12.80;6.00;;;4.10;99.90;;;;;;5075265;28;21348;-70
2021/12/03 08:16:19;;;;;;;10.17;5.60;;;4.10;99.90;;;;;;5073911;28;20195;-70
2021/12/03 08:18:48;;;;;;;16.10;6.67;;;4.20;99.90;;;;;;5074480;28;20477;-70
2021/12/03 08:21:14;;;;;;;17.60;6.47;;;4.20;99.90;;;;;;5074953;28;20246;-70
2021/12/03 08:23:39;;;;;;;20.37;6.60;;;4.30;99.90;;;;;;5073926;28;20211;-70
2021/12/03 08:26:05;;;;;;;12.20;5.80;;;4.30;99.90;;;;;;5074136;28;20303;-70
2021/12/03 08:28:32;;;;;;;11.03;5.97;;;4.40;99.90;;;;;;5073806;28;20177;-71
2021/12/03 08:30:58;;;;;;;13.97;5.77;;;4.30;99.90;;;;;;5073860;28;20646;-71
2021/12/03 08:33:25;;;;;;;15.70;7.03;;;4.40;99.90;;;;;;5074661;28;20218;-70
2021/12/03 08:35:50;;;;;;;10.93;5.67;;;4.50;99.90;;;;;;5067658;28;20180;-70
2021/12/03 08:38:16;;;;;;;20.97;6.70;;;4.50;99.90;;;;;;5065105;28;20172;-70
2021/12/03 08:40:42;;;;;;;14.60;6.20;;;4.50;99.90;;;;;;5066376;28;20263;-70
2021/12/03 08:43:08;;;;;;;13.37;6.43;;;4.60;99.90;;;;;;5071145;28;20187;-69
2021/12/03 08:45:35;;;;;;;12.73;6.57;;;4.60;99.90;;;;;;5073795;28;20246;-71
2021/12/03 08:48:02;;;;;;;17.83;6.60;;;4.60;99.90;;;;;;5072503;28;20172;-71
2021/12/03 08:50:34;;;;;;;20.77;7.40;;;4.50;99.90;;;;;;5072877;28;20255;-70
2021/12/03 08:55:44;;;;;;;20.23;5.93;;;4.80;99.90;;;;;;5073259;28;20635;-71
2021/12/03 08:58:11;;;;;;;18.07;6.50;;;4.80;99.90;;;;;;5073335;28;20267;-71
2021/12/03 09:00:38;;;;;;;12.00;6.20;;;4.80;99.90;;;;;;5073310;28;20271;-71
2021/12/03 09:03:05;;;;;;;14.00;6.53;;;4.80;99.90;;;;;;5058738;28;20328;-70
2021/12/03 09:05:32;;;;;;;14.60;6.17;;;4.80;99.90;;;;;;5072254;28;20208;-71
2021/12/03 09:07:58;;;;;;;15.87;6.57;;;4.80;99.90;;;;;;5073656;28;20175;-70
2021/12/03 09:10:24;;;;;;;16.87;6.33;;;4.80;99.90;;;;;;5072691;28;20296;-70
2021/12/03 09:12:51;;;;;;;14.60;6.80;;;4.90;99.90;;;;;;5072686;28;20565;-71
2021/12/03 09:15:23;;;;;;;13.70;6.47;;;5.00;99.90;;;;;;5073481;28;20191;-70
2021/12/03 09:18:12;;;;;;;18.27;6.10;;;5.10;99.90;;;;;;5072527;28;20255;-71
2021/12/03 09:23:16;;;;;;;10.97;5.73;;;5.10;99.90;;;;;;5072508;28;20679;-71
2021/12/03 09:25:54;;;;;;;10.93;5.63;;;5.20;99.90;;;;;;5072775;28;20556;-70
2021/12/03 09:28:26;;;;;;;13.50;5.57;;;5.20;99.90;;;;;;5072030;28;20213;-71
2021/12/03 09:30:52;;;;;;;11.87;6.07;;;5.30;99.90;;;;;;5072228;28;20239;-70
2021/12/03 09:33:19;;;;;;;11.43;6.30;;;5.30;99.90;;;;;;5072874;28;20179;-70
2021/12/03 09:35:50;;;;;;;14.73;6.27;;;5.30;99.90;;;;;;5073050;28;20646;-70
2021/12/03 09:38:16;;;;;;;14.30;6.37;;;5.30;99.90;;;;;;5072744;28;20218;-70
2021/12/03 09:40:42;;;;;;;13.17;6.40;;;5.30;99.90;;;;;;5072566;28;20184;-70
2021/12/03 09:43:08;;;;;;;18.00;6.43;;;5.40;99.90;;;;;;5071542;28;20584;-70
2021/12/03 09:45:38;;;;;;;14.60;6.10;;;5.50;99.90;;;;;;5072190;28;20614;-70
2021/12/03 09:48:33;;;;;;;13.20;6.40;;;5.50;99.90;;;;;;5072594;28;20177;-71
2021/12/03 09:50:52;;;;;;;14.53;6.20;;;5.50;99.90;;;;;;5071507;28;20192;-70
2021/12/03 09:55:43;;;;;;;16.43;6.60;;;5.60;99.90;;;;;;5072289;28;20173;-71
2021/12/03 10:00:58;;;;;;;14.53;6.33;;;5.40;99.90;;;;;;5071965;28;20176;-71
2021/12/03 10:03:54;;;;;;;12.07;5.93;;;5.50;99.90;;;;;;5071590;28;20176;-71
2021/12/03 10:10:03;;;;;;;13.20;5.60;;;5.40;99.90;;;;;;5056835;28;20196;-71
2021/12/03 10:12:23;;;;;;;13.20;5.83;;;5.50;99.90;;;;;;5071356;28;20187;-71
2021/12/03 10:14:59;;;;;;;9.67;5.80;;;5.60;99.90;;;;;;5071638;28;20659;-72
2021/12/03 10:20:28;;;;;;;9.53;5.70;;;5.70;99.90;;;;;;5063653;28;20172;-72
2021/12/03 10:29:16;;;;;;;13.47;5.47;;;5.80;99.90;;;;;;5071210;28;20585;-71
2021/12/03 10:34:26;;;;;;;12.37;5.60;;;5.90;99.90;;;;;;5071676;28;20252;-71
2021/12/03 10:37:13;;;;;;;11.77;5.10;;;6.00;99.90;;;;;;5071227;28;20173;-70
2021/12/03 10:39:49;;;;;;;14.33;5.90;;;6.00;99.90;;;;;;5070750;28;20545;-70
2021/12/03 10:42:49;;;;;;;9.90;5.73;;;5.90;99.90;;;;;;5071347;28;20172;-70
2021/12/03 10:46:03;;;;;;;14.60;5.87;;;5.70;99.90;;;;;;5071382;28;20292;-71
2021/12/03 10:48:19;;;;;;;10.87;5.10;;;5.80;99.90;;;;;;5063012;28;20180;-71
2021/12/03 10:51:11;;;;;;;11.67;5.90;;;5.80;99.90;;;;;;5071643;28;20198;-70
2021/12/03 10:53:42;;;;;;;11.13;6.60;;;5.90;99.90;;;;;;5070942;28;20172;-71
2021/12/03 11:06:49;;;;;;;25.00;16.33;;;6.20;99.90;;;;;;5071827;28;20822;-71
2021/12/03 11:36:50;;;;;;;22.70;18.90;;;5.80;99.90;;;;;;5075126;28;20655;-71
2021/12/03 11:42:34;;;;;;;12.87;5.57;;;5.90;99.90;;;;;;5076029;28;20177;-71
2021/12/03 13:19:39;;;;;;;4.97;3.70;;;5.60;99.90;;;;;;5068061;28;20222;-72
2021/12/03 13:28:40;;;;;;;8.10;4.20;;;5.50;99.90;;;;;;5072404;28;20204;-72
2021/12/03 14:15:05;;;;;;;5.40;4.03;;;5.40;99.90;;;;;;5071803;28;20191;-71
2021/12/03 14:30:15;;;;;;;5.27;3.90;;;5.20;99.90;;;;;;5071611;28;20334;-72
2021/12/03 14:41:42;;;;;;;4.50;3.40;;;5.20;99.90;;;;;;5071004;28;20168;-72
2021/12/03 14:44:18;;;;;;;4.93;4.10;;;5.20;99.90;;;;;;5071187;28;20229;-71
2021/12/03 14:51:55;;;;;;;9.90;7.40;;;5.10;99.90;;;;;;5071544;28;20226;-72
2021/12/03 14:57:09;;;;;;;13.63;9.57;;;5.20;99.90;;;;;;5070923;28;20514;-72
2021/12/03 14:59:38;;;;;;;6.40;3.60;;;5.20;99.90;;;;;;5069606;28;20215;-73
2021/12/03 15:02:21;;;;;;;11.40;6.50;;;5.10;99.90;;;;;;5070552;28;20176;-73
2021/12/03 15:05:15;;;;;;;14.17;8.83;;;5.10;99.90;;;;;;5070402;28;20707;-72
2021/12/03 15:07:45;;;;;;;6.00;4.40;;;5.20;99.90;;;;;;5071030;28;20534;-73
2021/12/03 15:10:22;;;;;;;28.83;22.83;;;5.20;99.90;;;;;;5070888;28;20207;-73
2021/12/03 15:29:33;;;;;;;4.63;3.57;;;5.20;99.90;;;;;;4959841;28;20184;-72
2021/12/03 15:32:07;;;;;;;4.00;3.10;;;5.20;99.90;;;;;;5028034;28;20535;-71
2021/12/03 15:34:51;;;;;;;5.57;3.10;;;5.10;99.90;;;;;;5027498;28;20195;-72
2021/12/03 16:04:02;;;;;;;4.00;3.60;;;5.10;99.90;;;;;;5071267;28;20180;-73
2021/12/03 16:09:00;;;;;;;3.90;3.60;;;5.10;99.90;;;;;;5070272;28;20189;-73
2021/12/03 16:53:32;;;;;;;9.67;8.87;;;5.00;99.90;;;;;;5073256;28;20173;-72
2021/12/03 16:59:00;;;;;;;3.80;3.50;;;5.10;99.90;;;;;;5031127;28;20534;-72
2021/12/03 17:31:02;;;;;;;17.50;15.97;;;5.40;99.90;;;;;;5031533;28;20168;-72
2021/12/03 17:44:36;;;;;;;13.77;12.37;;;5.30;99.90;;;;;;5033350;28;20686;-72
2021/12/03 17:57:33;;;;;;;3.57;3.27;;;5.40;99.90;;;;;;5033259;28;20266;-71
2021/12/03 18:00:05;;;;;;;7.40;6.83;;;5.40;99.90;;;;;;5032905;28;20260;-73
2021/12/03 18:02:45;;;;;;;3.77;3.47;;;5.40;99.90;;;;;;5030974;28;20235;-73
2021/12/03 18:07:54;;;;;;;6.73;6.13;;;5.30;99.90;;;;;;5032330;28;20162;-72
2021/12/03 18:45:20;;;;;;;4.80;4.40;;;5.30;99.90;;;;;;5072732;28;20207;-72
2021/12/03 18:55:49;;;;;;;5.23;4.80;;;5.30;99.90;;;;;;5072240;28;20171;-73
2021/12/03 18:58:15;;;;;;;3.67;3.37;;;5.40;99.90;;;;;;5071572;28;20535;-72
2021/12/03 19:00:44;;;;;;;4.70;4.33;;;5.40;99.90;;;;;;5072324;28;20176;-72
2021/12/03 19:11:16;;;;;;;10.10;8.53;;;5.40;99.90;;;;;;5072384;28;20187;-73
2021/12/03 19:13:42;;;;;;;3.77;3.37;;;5.40;99.90;;;;;;5072441;28;20164;-73
2021/12/03 19:16:10;;;;;;;3.80;3.53;;;5.40;99.90;;;;;;5072240;28;20632;-72
2021/12/03 19:18:37;;;;;;;4.27;3.60;;;5.40;99.90;;;;;;5072580;28;20216;-73
2021/12/03 19:21:08;;;;;;;5.10;3.70;;;5.50;99.90;;;;;;5071692;28;20188;-73
2021/12/03 19:23:34;;;;;;;4.20;3.80;;;5.50;99.90;;;;;;5072141;28;20189;-72
2021/12/03 19:26:00;;;;;;;4.40;3.70;;;5.50;99.90;;;;;;5072604;28;20702;-74
2021/12/03 19:28:26;;;;;;;4.27;3.80;;;5.50;99.90;;;;;;5072388;28;20164;-74
2021/12/03 19:30:54;;;;;;;4.53;4.00;;;5.50;99.90;;;;;;5071992;28;20202;-74
2021/12/03 19:33:20;;;;;;;4.10;3.70;;;5.50;99.90;;;;;;5071720;28;20605;-73
2021/12/03 19:35:46;;;;;;;4.03;3.73;;;5.50;99.90;;;;;;5072246;28;20267;-73
2021/12/03 19:38:14;;;;;;;4.27;3.87;;;5.60;99.90;;;;;;5071667;28;20537;-74
2021/12/03 19:40:46;;;;;;;4.53;4.10;;;5.60;99.90;;;;;;5073280;28;20173;-73
2021/12/03 19:43:14;;;;;;;4.73;4.33;;;5.60;99.90;;;;;;5072031;28;20235;-75
2021/12/03 19:45:49;;;;;;;5.23;4.17;;;5.70;99.90;;;;;;5072989;28;20236;-74
2021/12/03 19:48:16;;;;;;;4.00;3.70;;;5.70;99.90;;;;;;5076195;28;20164;-73
2021/12/03 19:50:44;;;;;;;3.93;3.63;;;5.60;99.90;;;;;;5075918;28;20169;-73
2021/12/03 19:53:13;;;;;;;4.60;4.10;;;5.60;99.90;;;;;;5075959;28;20213;-74
2021/12/03 19:55:40;;;;;;;4.57;4.07;;;5.60;99.90;;;;;;5075945;28;20247;-74
2021/12/03 19:58:08;;;;;;;5.90;4.10;;;5.60;99.90;;;;;;5075855;28;20169;-74
2021/12/03 20:00:35;;;;;;;4.30;3.90;;;5.50;99.90;;;;;;5075681;28;20179;-74
2021/12/03 20:03:00;;;;;;;4.43;4.10;;;5.50;99.90;;;;;;5075201;28;20306;-73
2021/12/03 20:05:26;;;;;;;4.43;4.03;;;5.50;99.90;;;;;;5075554;28;20294;-74
2021/12/03 20:07:53;;;;;;;4.83;4.43;;;5.50;99.90;;;;;;5075257;28;20238;-73